Time;durP1;ratioP1;P1;durP2;ratioP2;P2;SDS_P1;SDS_P2;PMS_P1;PMS_P2;Temp;Humidity;BMP_temperature;BMP_pressure;BME280_temperature;BME280_humidity;BME280_pressure;Samples;Min_cycle;Max_cycle;Signal;HPM_P1;HPM_P2
2023/11/02 00:00:54;;;;;;;3.17;1.80;;;11.30;90.90;;;;;;749011;186;26498;-89
2023/11/02 00:03:15;;;;;;;3.70;1.73;;;11.30;90.80;;;;;;747595;189;27055;-89
2023/11/02 00:06:17;;;;;;;3.43;1.63;;;11.40;91.00;;;;;;747905;191;26550;-88
2023/11/02 00:08:44;;;;;;;3.90;1.60;;;11.50;90.40;;;;;;746363;190;27029;-90
2023/11/02 00:11:11;;;;;;;4.87;1.90;;;11.60;90.20;;;;;;746721;190;27036;-87
2023/11/02 00:13:37;;;;;;;3.70;1.83;;;11.70;89.60;;;;;;760546;188;26487;-88
2023/11/02 00:16:04;;;;;;;5.53;2.17;;;11.70;90.00;;;;;;764211;188;27082;-90
2023/11/02 00:18:32;;;;;;;3.63;1.80;;;11.70;89.90;;;;;;748446;191;26531;-88
2023/11/02 00:20:58;;;;;;;4.83;2.30;;;11.80;89.60;;;;;;763287;187;26486;-88
2023/11/02 00:23:30;;;;;;;3.37;1.70;;;11.80;88.80;;;;;;762295;188;27026;-88
2023/11/02 00:25:57;;;;;;;2.27;1.70;;;11.90;88.40;;;;;;761413;184;26469;-89
2023/11/02 00:28:23;;;;;;;4.03;1.77;;;11.90;88.40;;;;;;762218;189;26485;-89
2023/11/02 00:30:51;;;;;;;3.50;1.70;;;11.90;88.30;;;;;;762259;189;26482;-89
2023/11/02 00:33:17;;;;;;;5.10;1.70;;;12.00;87.90;;;;;;762197;189;26497;-89
2023/11/02 00:35:43;;;;;;;3.17;1.70;;;12.00;87.70;;;;;;763656;184;27113;-93
2023/11/02 00:38:10;;;;;;;4.60;1.70;;;12.00;88.20;;;;;;765697;185;26484;-88
2023/11/02 00:40:36;;;;;;;4.80;1.77;;;12.00;88.30;;;;;;765758;188;26497;-89
2023/11/02 00:43:05;;;;;;;4.33;2.03;;;12.00;87.90;;;;;;765543;188;27059;-88
2023/11/02 00:45:31;;;;;;;8.87;1.73;;;12.00;88.00;;;;;;765124;188;27036;-89
2023/11/02 00:47:58;;;;;;;2.97;1.50;;;12.00;88.30;;;;;;764555;188;26499;-90
2023/11/02 00:50:43;;;;;;;2.93;1.40;;;12.00;88.10;;;;;;765035;188;27054;-89
2023/11/02 00:53:11;;;;;;;4.30;1.53;;;12.00;87.50;;;;;;763604;188;26481;-89
2023/11/02 00:55:36;;;;;;;4.87;1.77;;;12.10;87.10;;;;;;746981;190;26498;-89
2023/11/02 00:58:04;;;;;;;2.70;1.53;;;12.10;87.00;;;;;;745680;192;26517;-89
2023/11/02 01:01:05;;;;;;;3.23;1.57;;;12.10;86.40;;;;;;746490;189;26490;-91
2023/11/02 01:03:30;;;;;;;6.63;1.80;;;12.10;86.60;;;;;;761142;186;26504;-89
2023/11/02 01:05:57;;;;;;;4.17;1.77;;;12.10;87.30;;;;;;749755;187;26551;-90
2023/11/02 01:08:24;;;;;;;3.90;1.57;;;12.10;87.10;;;;;;745779;193;27084;-89
2023/11/02 01:10:50;;;;;;;3.97;1.73;;;12.10;87.10;;;;;;749024;189;26512;-89
2023/11/02 01:13:17;;;;;;;2.70;1.60;;;12.10;86.10;;;;;;750756;190;27072;-89
2023/11/02 01:15:58;;;;;;;3.47;1.57;;;12.20;86.60;;;;;;749837;187;26505;-91
2023/11/02 01:18:25;;;;;;;4.53;1.60;;;12.20;86.90;;;;;;749956;186;26542;-90
2023/11/02 01:21:00;;;;;;;6.43;1.70;;;12.20;86.10;;;;;;758572;187;27034;-88
2023/11/02 01:23:27;;;;;;;4.33;1.50;;;12.20;87.00;;;;;;749677;189;26508;-89
2023/11/02 01:25:53;;;;;;;5.17;2.33;;;12.20;85.50;;;;;;746351;191;26536;-89
2023/11/02 01:28:20;;;;;;;3.03;1.70;;;12.20;85.60;;;;;;767836;177;26565;-83
2023/11/02 01:31:06;;;;;;;1.97;1.33;;;12.20;85.40;;;;;;764411;184;26492;-84
2023/11/02 01:33:59;;;;;;;3.20;1.50;;;12.20;85.30;;;;;;777612;179;27035;-85
2023/11/02 01:36:36;;;;;;;4.83;1.60;;;12.20;85.30;;;;;;784027;181;26465;-86
2023/11/02 01:39:05;;;;;;;5.50;1.70;;;12.20;85.30;;;;;;787504;180;26448;-86
2023/11/02 01:41:50;;;;;;;4.10;2.00;;;12.20;85.30;;;;;;795187;177;26476;-87
2023/11/02 01:44:51;;;;;;;3.60;1.77;;;12.20;85.60;;;;;;788585;176;27010;-85
2023/11/02 01:47:26;;;;;;;4.93;1.77;;;12.20;84.60;;;;;;788113;179;26430;-85
2023/11/02 01:50:06;;;;;;;7.67;1.87;;;12.20;85.00;;;;;;778121;182;26495;-87
2023/11/02 01:53:03;;;;;;;3.77;1.70;;;12.20;85.30;;;;;;790226;179;26437;-88
2023/11/02 01:55:57;;;;;;;3.83;1.80;;;12.20;86.10;;;;;;791498;179;26488;-86
2023/11/02 01:58:25;;;;;;;3.97;1.70;;;12.20;85.00;;;;;;783839;179;26519;-86
2023/11/02 02:01:00;;;;;;;4.23;2.03;;;12.20;85.00;;;;;;785273;179;26462;-85
2023/11/02 02:03:42;;;;;;;4.87;1.77;;;12.20;84.80;;;;;;778707;179;26548;-86
2023/11/02 02:06:09;;;;;;;4.53;1.90;;;12.20;84.80;;;;;;780379;176;26467;-85
2023/11/02 02:08:47;;;;;;;5.00;1.73;;;12.20;84.20;;;;;;759855;186;26493;-84
2023/11/02 02:11:18;;;;;;;5.37;1.83;;;12.20;83.90;;;;;;774836;184;26488;-83
2023/11/02 02:14:04;;;;;;;6.43;2.00;;;12.20;84.10;;;;;;766072;185;26491;-85
2023/11/02 02:16:46;;;;;;;4.57;1.87;;;12.20;84.60;;;;;;782272;181;26437;-85
2023/11/02 02:19:32;;;;;;;4.80;2.17;;;12.20;84.10;;;;;;776063;182;26479;-84
2023/11/02 02:22:07;;;;;;;3.07;1.70;;;12.20;85.50;;;;;;785398;180;26439;-84
2023/11/02 02:24:33;;;;;;;4.43;2.20;;;12.20;86.10;;;;;;792099;179;26476;-83
2023/11/02 02:27:21;;;;;;;4.97;1.80;;;12.10;85.00;;;;;;788507;181;26467;-87
2023/11/02 02:30:08;;;;;;;4.23;1.80;;;12.10;86.30;;;;;;771645;185;26492;-84
2023/11/02 02:33:01;;;;;;;5.97;2.10;;;12.10;85.80;;;;;;783872;177;27023;-84
2023/11/02 02:35:31;;;;;;;4.37;1.70;;;12.10;86.20;;;;;;778369;181;26495;-83
2023/11/02 02:37:59;;;;;;;4.27;1.83;;;12.10;85.50;;;;;;776544;181;26474;-84
2023/11/02 02:40:40;;;;;;;4.07;2.27;;;12.10;85.40;;;;;;789971;178;26448;-84
2023/11/02 02:43:07;;;;;;;3.27;1.80;;;12.10;85.90;;;;;;781108;182;26454;-86
2023/11/02 02:45:34;;;;;;;4.03;2.40;;;12.10;85.20;;;;;;772183;183;27090;-84
2023/11/02 02:48:05;;;;;;;4.63;1.90;;;12.20;85.90;;;;;;779991;183;26496;-83
2023/11/02 02:50:31;;;;;;;5.03;1.70;;;12.20;85.50;;;;;;789022;180;26437;-83
2023/11/02 02:52:59;;;;;;;7.47;2.20;;;12.20;85.40;;;;;;792364;179;26440;-82
2023/11/02 02:55:24;;;;;;;4.90;2.30;;;12.20;85.00;;;;;;762039;184;26529;-86
2023/11/02 02:57:51;;;;;;;5.37;2.20;;;12.20;85.20;;;;;;769765;184;26505;-85
2023/11/02 03:00:18;;;;;;;4.53;1.90;;;12.20;84.90;;;;;;767031;182;26493;-85
2023/11/02 03:02:44;;;;;;;6.73;2.00;;;12.20;84.80;;;;;;766278;185;27019;-81
2023/11/02 03:05:11;;;;;;;5.70;1.83;;;12.20;84.10;;;;;;776589;183;26516;-85
2023/11/02 03:07:38;;;;;;;4.10;2.00;;;12.20;84.60;;;;;;794235;179;27073;-86
2023/11/02 03:10:04;;;;;;;6.43;2.30;;;12.30;84.00;;;;;;791882;179;26467;-87
2023/11/02 03:12:35;;;;;;;3.23;2.00;;;12.30;83.70;;;;;;781167;181;26473;-89
2023/11/02 03:15:04;;;;;;;4.07;1.73;;;12.30;84.70;;;;;;787928;179;27075;-85
2023/11/02 03:17:59;;;;;;;3.53;1.93;;;12.30;84.00;;;;;;780964;181;26498;-83
2023/11/02 03:20:26;;;;;;;2.73;1.63;;;12.30;82.50;;;;;;786890;182;26530;-86
2023/11/02 03:22:53;;;;;;;4.90;1.97;;;12.40;82.30;;;;;;781148;184;27014;-84
2023/11/02 03:25:43;;;;;;;4.50;1.83;;;12.40;82.60;;;;;;787115;179;26431;-88
2023/11/02 03:28:25;;;;;;;6.13;1.60;;;12.40;81.60;;;;;;791874;181;26468;-85
2023/11/02 03:30:54;;;;;;;4.53;1.90;;;12.50;82.70;;;;;;790041;180;26991;-83
2023/11/02 03:33:22;;;;;;;5.00;1.80;;;12.40;81.60;;;;;;792277;181;26460;-88
2023/11/02 03:35:52;;;;;;;3.50;1.70;;;12.50;81.40;;;;;;792047;178;26436;-86
2023/11/02 03:38:39;;;;;;;4.17;1.90;;;12.50;81.10;;;;;;792990;180;26453;-82
2023/11/02 03:41:09;;;;;;;4.20;1.60;;;12.50;80.70;;;;;;789616;176;26428;-88
2023/11/02 03:43:50;;;;;;;3.80;1.63;;;12.50;80.20;;;;;;792538;180;26432;-85
2023/11/02 03:46:21;;;;;;;3.80;1.80;;;12.60;80.20;;;;;;791278;181;26459;-82
2023/11/02 03:48:47;;;;;;;3.50;1.80;;;12.60;79.00;;;;;;785848;182;26455;-89
2023/11/02 03:51:25;;;;;;;4.63;1.90;;;12.60;79.40;;;;;;774880;182;26476;-85
2023/11/02 03:53:58;;;;;;;4.10;2.10;;;12.50;79.70;;;;;;786872;183;26474;-85
2023/11/02 03:56:27;;;;;;;5.33;1.77;;;12.50;79.20;;;;;;786935;183;28061;-84
2023/11/02 03:58:59;;;;;;;5.60;1.67;;;12.50;80.20;;;;;;786105;178;26462;-87
2023/11/02 04:01:46;;;;;;;2.37;1.63;;;12.50;79.60;;;;;;787154;178;26425;-88
2023/11/02 04:04:13;;;;;;;3.07;1.57;;;12.50;79.90;;;;;;788044;181;27023;-86
2023/11/02 04:06:40;;;;;;;2.97;1.67;;;12.50;79.30;;;;;;774111;185;26492;-86
2023/11/02 04:09:07;;;;;;;3.37;1.50;;;12.50;79.60;;;;;;788442;182;26512;-81
2023/11/02 04:11:37;;;;;;;3.93;1.77;;;12.50;79.20;;;;;;776970;182;26481;-84
2023/11/02 04:14:15;;;;;;;3.77;1.53;;;12.50;79.40;;;;;;790252;180;26481;-85
2023/11/02 04:16:41;;;;;;;4.40;1.67;;;12.60;79.40;;;;;;776162;185;26473;-87
2023/11/02 04:19:16;;;;;;;5.00;1.63;;;12.60;79.40;;;;;;762373;184;26493;-85
2023/11/02 04:21:43;;;;;;;2.17;1.77;;;12.60;78.80;;;;;;787937;181;26423;-85
2023/11/02 04:24:12;;;;;;;6.23;2.03;;;12.60;78.40;;;;;;788319;182;26512;-89
2023/11/02 04:26:42;;;;;;;3.53;1.67;;;12.60;79.30;;;;;;788170;176;26433;-85
2023/11/02 04:29:12;;;;;;;4.70;1.80;;;12.60;78.00;;;;;;788073;182;26470;-84
2023/11/02 04:31:39;;;;;;;7.53;1.70;;;12.60;79.00;;;;;;787845;179;26527;-84
2023/11/02 04:34:12;;;;;;;2.53;1.50;;;12.60;78.30;;;;;;787436;182;27100;-85
2023/11/02 04:36:41;;;;;;;5.50;1.47;;;12.60;78.60;;;;;;788382;182;26439;-85
2023/11/02 04:39:10;;;;;;;5.23;1.90;;;12.50;78.90;;;;;;788408;175;26483;-85
2023/11/02 04:41:37;;;;;;;3.87;1.60;;;12.50;78.40;;;;;;788438;175;26447;-87
2023/11/02 04:44:04;;;;;;;3.37;1.67;;;12.50;78.60;;;;;;788368;176;26524;-85
2023/11/02 04:46:30;;;;;;;5.90;1.90;;;12.40;79.00;;;;;;788153;179;26517;-85
2023/11/02 04:48:57;;;;;;;7.33;2.80;;;12.40;79.80;;;;;;788878;182;26554;-85
2023/11/02 04:51:23;;;;;;;5.20;1.63;;;12.40;79.90;;;;;;790455;176;26454;-85
2023/11/02 04:53:55;;;;;;;3.87;1.70;;;12.40;80.60;;;;;;795190;181;26517;-86
2023/11/02 04:56:23;;;;;;;3.50;1.63;;;12.20;82.00;;;;;;791248;179;26428;-86
2023/11/02 04:58:54;;;;;;;2.23;1.60;;;12.10;82.40;;;;;;766491;183;26506;-86
2023/11/02 05:01:21;;;;;;;3.37;1.70;;;12.10;82.20;;;;;;788390;178;26427;-84
2023/11/02 05:03:47;;;;;;;3.70;1.70;;;12.00;83.40;;;;;;789623;179;26430;-85
2023/11/02 05:06:15;;;;;;;3.03;1.40;;;11.90;84.10;;;;;;791696;179;26438;-86
2023/11/02 05:08:41;;;;;;;2.93;1.43;;;12.00;83.30;;;;;;772214;181;27030;-85
2023/11/02 05:11:16;;;;;;;15.87;1.63;;;12.00;82.50;;;;;;786692;181;26434;-85
2023/11/02 05:13:44;;;;;;;4.83;1.60;;;12.00;81.90;;;;;;786630;182;26423;-88
2023/11/02 05:16:13;;;;;;;6.27;1.67;;;12.00;81.50;;;;;;788749;179;26521;-86
2023/11/02 05:18:40;;;;;;;2.23;1.60;;;12.10;80.40;;;;;;780245;181;26520;-86
2023/11/02 05:21:06;;;;;;;2.73;1.40;;;12.10;80.70;;;;;;787265;179;27021;-86
2023/11/02 05:23:38;;;;;;;6.17;1.33;;;12.10;80.80;;;;;;789089;176;26446;-88
2023/11/02 05:26:04;;;;;;;3.90;1.43;;;12.10;80.40;;;;;;789228;178;26418;-86
2023/11/02 05:28:36;;;;;;;6.80;1.60;;;12.20;80.30;;;;;;782272;181;26512;-86
2023/11/02 05:31:05;;;;;;;3.27;1.60;;;12.20;79.50;;;;;;788674;177;26445;-85
2023/11/02 05:33:36;;;;;;;2.23;1.50;;;12.30;79.60;;;;;;788810;176;26442;-87
2023/11/02 05:36:03;;;;;;;5.10;2.00;;;12.20;79.40;;;;;;790918;176;26442;-87
2023/11/02 05:38:33;;;;;;;4.23;1.43;;;12.20;79.70;;;;;;782407;180;26473;-87
2023/11/02 05:40:59;;;;;;;4.37;1.40;;;12.20;79.80;;;;;;791330;176;26458;-86
2023/11/02 05:43:29;;;;;;;3.37;1.50;;;12.20;79.60;;;;;;787322;179;26451;-88
2023/11/02 05:45:56;;;;;;;4.03;2.90;;;12.20;80.50;;;;;;782699;182;26486;-85
2023/11/02 05:48:31;;;;;;;4.17;1.50;;;12.20;79.60;;;;;;786594;180;26472;-86
2023/11/02 05:50:57;;;;;;;7.13;1.30;;;12.30;79.70;;;;;;782699;184;26477;-86
2023/11/02 05:53:24;;;;;;;5.07;1.70;;;12.40;80.20;;;;;;800127;180;26591;-85
2023/11/02 05:55:50;;;;;;;2.07;1.50;;;12.40;79.70;;;;;;777514;180;26479;-84
2023/11/02 05:58:18;;;;;;;4.63;1.70;;;12.40;79.20;;;;;;789107;181;26461;-86
2023/11/02 06:00:45;;;;;;;2.50;1.50;;;12.40;79.50;;;;;;791783;180;26437;-85
2023/11/02 06:03:11;;;;;;;3.47;1.50;;;12.40;79.60;;;;;;782592;180;26470;-86
2023/11/02 06:05:38;;;;;;;3.40;1.80;;;12.40;80.40;;;;;;790527;180;26461;-86
2023/11/02 06:08:05;;;;;;;3.60;1.70;;;12.40;79.70;;;;;;789565;181;26464;-85
2023/11/02 06:10:31;;;;;;;2.30;1.77;;;12.50;80.20;;;;;;788609;180;26515;-85
2023/11/02 06:12:58;;;;;;;4.50;1.40;;;12.50;80.90;;;;;;780176;181;26444;-85
2023/11/02 06:15:24;;;;;;;2.00;1.40;;;12.50;81.10;;;;;;788481;179;26458;-87
2023/11/02 06:17:51;;;;;;;3.73;1.47;;;12.50;81.50;;;;;;788394;182;27050;-86
2023/11/02 06:20:18;;;;;;;3.20;1.50;;;12.50;82.20;;;;;;789694;181;26434;-86
2023/11/02 06:22:44;;;;;;;2.70;1.60;;;12.50;81.50;;;;;;776050;184;26495;-85
2023/11/02 06:25:11;;;;;;;4.40;1.90;;;12.50;81.60;;;;;;782211;181;26491;-89
2023/11/02 06:27:40;;;;;;;3.70;1.70;;;12.50;81.60;;;;;;787598;181;26462;-85
2023/11/02 06:30:08;;;;;;;4.73;1.40;;;12.50;82.20;;;;;;788232;180;26469;-86
2023/11/02 06:32:35;;;;;;;3.40;1.37;;;12.50;82.30;;;;;;792577;177;28070;-86
2023/11/02 06:35:01;;;;;;;5.87;1.73;;;12.50;81.80;;;;;;798125;175;26432;-85
2023/11/02 06:37:31;;;;;;;2.57;1.40;;;12.40;81.80;;;;;;797231;175;27142;-86
2023/11/02 06:39:59;;;;;;;2.87;1.50;;;12.50;82.50;;;;;;793719;177;26524;-88
2023/11/02 06:42:27;;;;;;;3.13;1.57;;;12.40;82.00;;;;;;796645;175;26495;-86
2023/11/02 06:44:52;;;;;;;4.37;1.53;;;12.40;82.40;;;;;;792946;180;27002;-89
2023/11/02 06:47:29;;;;;;;2.33;1.60;;;12.40;82.10;;;;;;789554;176;26438;-87
2023/11/02 06:49:56;;;;;;;2.03;1.40;;;12.50;82.60;;;;;;788322;181;26450;-89
2023/11/02 06:52:23;;;;;;;3.57;1.60;;;12.50;82.40;;;;;;792518;176;26442;-87
2023/11/02 06:54:50;;;;;;;1.40;1.27;;;12.50;82.20;;;;;;792728;176;26479;-87
2023/11/02 06:57:16;;;;;;;2.93;1.40;;;12.50;82.60;;;;;;787649;180;26515;-86
2023/11/02 06:59:49;;;;;;;3.87;1.50;;;12.60;82.20;;;;;;792435;175;27030;-88
2023/11/02 07:02:38;;;;;;;4.80;1.57;;;12.60;82.60;;;;;;792418;180;26449;-86
2023/11/02 07:05:12;;;;;;;1.97;1.30;;;12.70;83.80;;;;;;792515;181;26453;-86
2023/11/02 07:07:49;;;;;;;1.20;1.10;;;12.50;86.00;;;;;;793375;180;27065;-88
2023/11/02 07:13:12;;;;;;;2.80;1.40;;;12.30;88.50;;;;;;778986;181;26482;-89
2023/11/02 07:15:48;;;;;;;4.17;1.40;;;12.10;88.80;;;;;;795468;180;26434;-91
2023/11/02 07:18:27;;;;;;;3.37;1.50;;;11.90;91.20;;;;;;795674;177;26451;-90
2023/11/02 07:20:54;;;;;;;4.17;1.50;;;11.80;91.80;;;;;;791956;178;26514;-91
2023/11/02 07:39:56;;;;;;;2.97;1.60;;;11.40;93.60;;;;;;740662;175;26471;-88
2023/11/02 07:42:23;;;;;;;5.13;1.47;;;11.40;93.80;;;;;;794598;180;26456;-91
2023/11/02 07:44:49;;;;;;;1.80;1.40;;;11.50;93.70;;;;;;796471;178;27008;-92
2023/11/02 07:47:16;;;;;;;3.70;1.60;;;11.50;93.30;;;;;;797499;177;26456;-92
2023/11/02 07:52:46;;;;;;;2.30;1.43;;;11.50;93.60;;;;;;805117;176;26499;-93
2023/11/02 07:55:28;;;;;;;1.77;1.40;;;11.50;93.10;;;;;;792986;177;26527;-90
2023/11/02 07:58:07;;;;;;;3.00;1.60;;;11.50;93.30;;;;;;804106;176;27076;-92
2023/11/02 08:00:34;;;;;;;4.57;1.60;;;11.50;93.50;;;;;;803727;176;26394;-92
2023/11/02 08:03:03;;;;;;;2.43;1.50;;;11.50;93.10;;;;;;792824;180;26458;-93
2023/11/02 08:11:01;;;;;;;2.80;1.50;;;11.60;93.10;;;;;;757469;173;27074;-90
2023/11/02 08:13:31;;;;;;;1.77;1.40;;;11.60;93.30;;;;;;799611;175;26508;-90
2023/11/02 08:15:59;;;;;;;2.27;1.40;;;11.60;93.10;;;;;;801538;176;26550;-90
2023/11/02 08:18:26;;;;;;;2.27;1.50;;;11.70;92.80;;;;;;797937;176;26446;-91
2023/11/02 08:24:43;;;;;;;;;;;;;;;;;;;;;
2023/11/02 08:27:11;;;;;;;;;;;;;;;;;;;;;
2023/11/02 08:46:43;;;;;;;1.90;1.30;;;12.10;92.20;;;;;;727530;177;26713;-87
2023/11/02 08:49:37;;;;;;;3.93;1.57;;;12.30;91.70;;;;;;797739;178;26520;-89
2023/11/02 08:52:14;;;;;;;3.77;1.50;;;12.30;92.30;;;;;;796433;178;27193;-92
2023/11/02 08:54:46;;;;;;;2.93;1.30;;;12.40;91.70;;;;;;797212;178;27038;-91
2023/11/02 08:57:37;;;;;;;3.90;1.70;;;12.40;91.70;;;;;;798658;177;26966;-90
2023/11/02 09:00:09;;;;;;;4.03;1.70;;;12.50;91.90;;;;;;798527;177;27020;-89
2023/11/02 09:02:47;;;;;;;3.67;1.37;;;12.70;91.10;;;;;;799579;177;26478;-91
2023/11/02 09:05:25;;;;;;;4.20;1.50;;;12.70;91.40;;;;;;798047;177;26880;-92
2023/11/02 09:08:11;;;;;;;3.23;1.60;;;12.70;91.30;;;;;;797874;178;26451;-90
2023/11/02 09:10:38;;;;;;;2.70;1.40;;;12.70;91.20;;;;;;798419;178;26454;-88
2023/11/02 09:13:26;;;;;;;2.33;1.40;;;12.70;91.10;;;;;;799227;179;26450;-89
2023/11/02 09:15:53;;;;;;;2.50;1.70;;;12.80;91.70;;;;;;800078;178;26440;-88
2023/11/02 09:21:20;;;;;;;3.87;1.60;;;12.90;90.90;;;;;;799315;178;26977;-88
2023/11/02 09:24:15;;;;;;;3.83;1.73;;;13.00;91.40;;;;;;799259;178;26462;-88
2023/11/02 09:27:01;;;;;;;2.57;1.43;;;13.00;90.90;;;;;;800955;179;26436;-88
2023/11/02 09:29:28;;;;;;;3.00;1.53;;;13.20;90.60;;;;;;798216;179;26549;-89
2023/11/02 09:32:03;;;;;;;2.20;1.70;;;13.20;90.60;;;;;;798823;175;26434;-90
2023/11/02 09:34:38;;;;;;;3.57;2.30;;;13.30;90.40;;;;;;799066;178;27010;-88
2023/11/02 09:37:19;;;;;;;3.40;1.60;;;13.30;90.70;;;;;;797651;178;26431;-89
2023/11/02 09:39:58;;;;;;;3.70;1.60;;;13.40;89.70;;;;;;798066;177;26455;-89
2023/11/02 09:42:35;;;;;;;2.63;1.50;;;13.40;90.20;;;;;;799416;178;26420;-86
2023/11/02 09:45:08;;;;;;;5.13;1.60;;;13.60;88.70;;;;;;800387;178;28023;-89
2023/11/02 09:47:47;;;;;;;4.00;1.90;;;13.70;87.00;;;;;;803073;177;26430;-91
2023/11/02 09:50:28;;;;;;;;;;;;;;;;;;;;;
2023/11/02 09:53:01;;;;;;;5.90;1.70;;;13.80;87.10;;;;;;799374;177;26494;-87
2023/11/02 09:55:31;;;;;;;4.43;1.73;;;13.80;85.70;;;;;;800359;179;28118;-87
2023/11/02 10:00:45;;;;;;;7.27;2.00;;;14.00;85.70;;;;;;799698;179;26634;-83
2023/11/02 10:03:22;;;;;;;2.37;1.67;;;14.00;83.50;;;;;;795330;179;26447;-86
2023/11/02 10:06:00;;;;;;;6.43;2.13;;;14.10;83.50;;;;;;797604;177;26566;-86
2023/11/02 10:08:31;;;;;;;6.00;1.63;;;14.20;82.70;;;;;;798583;177;27056;-86
2023/11/02 10:11:24;;;;;;;3.00;1.60;;;14.20;82.00;;;;;;799887;178;26499;-87
2023/11/02 10:13:50;;;;;;;3.03;1.67;;;14.30;82.00;;;;;;803267;178;26503;-87
2023/11/02 10:16:22;;;;;;;5.80;1.60;;;14.40;80.00;;;;;;800170;177;26994;-86
2023/11/02 10:18:55;;;;;;;6.43;1.50;;;14.40;79.40;;;;;;799549;179;26440;-89
2023/11/02 10:21:39;;;;;;;;;;;;;;;;;;;;;
2023/11/02 10:24:09;;;;;;;3.10;1.50;;;14.40;79.00;;;;;;796648;177;26455;-86
2023/11/02 10:26:38;;;;;;;8.07;1.83;;;14.50;77.90;;;;;;798790;174;26457;-84
2023/11/02 10:29:17;;;;;;;3.93;1.90;;;14.50;77.70;;;;;;799866;179;26435;-85
2023/11/02 10:31:54;;;;;;;4.50;1.80;;;14.60;77.50;;;;;;801083;178;26427;-87
2023/11/02 10:34:41;;;;;;;5.23;1.40;;;14.50;77.90;;;;;;797536;178;26523;-87
2023/11/02 10:37:11;;;;;;;7.20;1.90;;;14.60;76.60;;;;;;799787;178;26436;-84
2023/11/02 10:39:40;;;;;;;5.60;1.70;;;14.60;76.60;;;;;;797161;179;26462;-85
2023/11/02 10:42:17;;;;;;;4.23;1.93;;;14.70;76.70;;;;;;797756;178;26480;-85
2023/11/02 10:44:56;;;;;;;5.63;1.77;;;14.70;76.20;;;;;;799975;178;26435;-85
2023/11/02 10:47:25;;;;;;;5.40;1.70;;;14.80;75.80;;;;;;797578;179;26440;-86
2023/11/02 10:49:56;;;;;;;3.00;1.60;;;14.90;75.70;;;;;;800274;178;27173;-87
2023/11/02 10:52:31;;;;;;;6.07;1.70;;;14.90;75.50;;;;;;797528;178;26450;-88
2023/11/02 10:55:09;;;;;;;4.70;1.60;;;15.00;74.60;;;;;;797405;178;28320;-85
2023/11/02 10:57:48;;;;;;;27.07;17.37;;;15.20;71.10;;;;;;796956;179;26431;-85
2023/11/02 11:00:33;;;;;;;7.20;2.10;;;15.20;72.40;;;;;;796970;178;26476;-85
2023/11/02 11:03:00;;;;;;;5.47;1.73;;;15.10;73.00;;;;;;799176;178;26472;-85
2023/11/02 11:05:31;;;;;;;6.27;2.20;;;15.10;72.10;;;;;;796523;178;26462;-86
2023/11/02 11:08:07;;;;;;;5.13;2.03;;;15.20;72.50;;;;;;803687;177;26482;-85
2023/11/02 11:10:34;;;;;;;8.33;2.10;;;15.10;70.70;;;;;;800944;177;26456;-86
2023/11/02 11:13:10;;;;;;;5.17;1.90;;;15.10;71.70;;;;;;801414;177;27063;-85
2023/11/02 11:15:40;;;;;;;2.57;1.50;;;15.00;72.00;;;;;;796753;178;26462;-86
2023/11/02 11:18:11;;;;;;;4.20;1.80;;;14.90;71.00;;;;;;796348;179;26509;-85
2023/11/02 11:20:42;;;;;;;7.50;1.83;;;14.80;72.90;;;;;;797639;177;26446;-89
2023/11/02 11:23:14;;;;;;;4.50;1.70;;;14.80;71.00;;;;;;801607;178;26445;-85
2023/11/02 11:25:55;;;;;;;5.50;1.87;;;14.80;71.70;;;;;;800503;178;26505;-87
2023/11/02 11:29:03;;;;;;;5.57;1.93;;;15.20;72.20;;;;;;802162;177;26474;-83
2023/11/02 11:31:38;;;;;;;6.23;1.90;;;15.80;69.00;;;;;;799141;178;26450;-86
2023/11/02 11:34:11;;;;;;;7.00;2.00;;;16.30;65.20;;;;;;804362;177;26519;-85
2023/11/02 11:36:44;;;;;;;6.00;1.90;;;16.50;63.90;;;;;;801943;177;26446;-85
2023/11/02 11:39:25;;;;;;;8.33;2.00;;;16.50;63.10;;;;;;801385;179;27050;-85
2023/11/02 11:41:55;;;;;;;7.03;2.07;;;17.10;61.20;;;;;;801402;179;27085;-86
2023/11/02 11:44:35;;;;;;;7.73;2.10;;;16.70;60.70;;;;;;801395;178;26456;-86
2023/11/02 11:47:12;;;;;;;7.73;2.07;;;17.50;60.60;;;;;;801404;177;27081;-87
2023/11/02 11:52:25;;;;;;;32.53;18.90;;;16.70;59.70;;;;;;801446;179;27022;-86
2023/11/02 11:55:01;;;;;;;10.50;4.00;;;17.20;59.50;;;;;;799762;178;27732;-89
2023/11/02 11:57:53;;;;;;;7.20;2.30;;;18.10;55.80;;;;;;797650;179;26439;-87
2023/11/02 12:25:56;;;;;;;4.63;2.03;;;16.80;56.10;;;;;;746953;176;26510;-85
2023/11/02 12:28:50;;;;;;;;;;;;;;;;;;;;;
2023/11/02 12:31:27;;;;;;;9.23;3.73;;;16.30;57.60;;;;;;790011;180;26456;-85
2023/11/02 12:34:18;;;;;;;5.70;2.67;;;16.30;57.70;;;;;;790748;178;26469;-87
2023/11/02 12:36:52;;;;;;;5.93;2.90;;;16.90;54.80;;;;;;789892;179;26488;-86
2023/11/02 12:40:09;;;;;;;12.50;6.63;;;17.20;54.90;;;;;;791191;179;26456;-88
2023/11/02 12:45:48;;;;;;;;;;;;;;;;;;;;;
2023/11/02 12:48:51;;;;;;;7.20;2.67;;;17.30;55.50;;;;;;791573;179;26464;-88
2023/11/02 12:51:47;;;;;;;5.93;2.37;;;18.30;52.20;;;;;;781016;180;26471;-88
2023/11/02 12:54:27;;;;;;;6.53;2.87;;;17.30;53.10;;;;;;801093;176;26500;-89
2023/11/02 12:57:12;;;;;;;6.17;2.13;;;17.80;51.80;;;;;;766518;186;26559;-88
2023/11/02 12:59:56;;;;;;;8.53;2.43;;;17.40;52.20;;;;;;766090;186;26516;-89
2023/11/02 13:41:26;;;;;;;;;;;;;;;;;;;;;
2023/11/02 13:49:21;;;;;;;6.20;1.87;;;17.30;52.40;;;;;;793567;180;26459;-87
2023/11/02 13:52:11;;;;;;;4.77;1.90;;;17.60;51.10;;;;;;795205;180;27008;-85
2023/11/02 14:14:17;;;;;;;7.33;2.83;;;16.40;55.90;;;;;;714737;176;27036;-85
2023/11/02 14:16:43;;;;;;;3.40;2.00;;;17.50;54.40;;;;;;761052;188;26647;-87
2023/11/02 14:19:20;;;;;;;7.23;2.00;;;16.80;54.70;;;;;;759724;188;27072;-87
2023/11/02 14:21:49;;;;;;;6.27;2.00;;;16.20;56.10;;;;;;756205;184;26497;-88
2023/11/02 14:24:14;;;;;;;5.97;2.37;;;16.50;56.00;;;;;;754652;187;26517;-86
2023/11/02 14:26:45;;;;;;;7.50;2.37;;;16.60;56.00;;;;;;763219;187;27109;-85
2023/11/02 14:29:28;;;;;;;7.47;2.50;;;16.70;56.20;;;;;;769076;181;27006;-89
2023/11/02 14:43:30;;;;;;;6.63;2.20;;;16.80;55.00;;;;;;738069;177;26505;-88
2023/11/02 14:57:06;;;;;;;10.37;4.10;;;16.20;54.00;;;;;;759287;186;26503;-87
2023/11/02 15:13:29;;;;;;;6.77;2.57;;;15.80;56.20;;;;;;719069;181;27189;-90
2023/11/02 15:16:03;;;;;;;13.90;5.90;;;15.60;55.20;;;;;;753862;189;26519;-91
2023/11/02 15:18:32;;;;;;;7.63;3.03;;;15.50;55.70;;;;;;748633;189;26536;-86
2023/11/02 15:21:39;;;;;;;13.43;5.20;;;15.50;55.90;;;;;;752738;189;26580;-87
2023/11/02 15:24:07;;;;;;;9.47;2.90;;;15.30;56.20;;;;;;749135;191;26525;-86
2023/11/02 15:32:26;;;;;;;10.87;2.87;;;15.10;56.90;;;;;;719632;176;27163;-86
2023/11/02 15:35:10;;;;;;;10.43;2.67;;;14.80;57.50;;;;;;779488;183;27017;-84
2023/11/02 15:38:16;;;;;;;;;;;;;;;;;;;;;
2023/11/02 15:43:47;;;;;;;11.50;3.00;;;14.10;59.90;;;;;;753725;187;26505;-86
2023/11/02 15:52:36;;;;;;;;;;;;;;;;;;;;;
2023/11/02 15:55:35;;;;;;;9.23;3.27;;;13.70;64.70;;;;;;754966;187;26544;-87
2023/11/02 16:06:33;;;;;;;11.80;3.33;;;13.60;64.80;;;;;;733934;175;26521;-85
2023/11/02 16:12:18;;;;;;;15.10;3.23;;;13.40;65.00;;;;;;743139;177;26462;-88
2023/11/02 16:15:15;;;;;;;11.37;2.83;;;13.50;65.10;;;;;;795188;176;26490;-88
2023/11/02 16:18:06;;;;;;;8.50;3.23;;;13.40;65.40;;;;;;796277;180;26430;-87
2023/11/02 16:21:03;;;;;;;;;;;;;;;;;;;;;
2023/11/02 16:27:00;;;;;;;7.33;2.83;;;13.30;65.00;;;;;;790437;176;26479;-87
2023/11/02 16:38:18;;;;;;;6.97;2.87;;;13.40;63.30;;;;;;714849;180;26513;-88
2023/11/02 16:40:56;;;;;;;12.30;4.20;;;13.40;63.00;;;;;;778929;181;27161;-86
2023/11/02 16:43:38;;;;;;;16.60;3.67;;;13.30;62.40;;;;;;803437;178;26466;-87
2023/11/02 16:46:25;;;;;;;14.70;7.07;;;13.30;63.50;;;;;;800858;178;26431;-88
2023/11/02 16:49:11;;;;;;;9.40;3.40;;;13.20;62.40;;;;;;796869;177;26481;-87
2023/11/02 16:51:55;;;;;;;15.40;5.17;;;13.20;62.80;;;;;;774867;184;26748;-87
2023/11/02 16:54:35;;;;;;;37.93;17.83;;;13.10;62.80;;;;;;778495;183;26461;-87
2023/11/02 16:57:19;;;;;;;;;;;;;;;;;;;;;
2023/11/02 17:14:30;;;;;;;13.83;3.20;;;12.80;63.40;;;;;;724179;180;27098;-87
2023/11/02 17:20:05;;;;;;;9.57;2.90;;;12.90;62.30;;;;;;787037;179;27030;-89
2023/11/02 17:31:18;;;;;;;15.63;3.90;;;12.90;62.40;;;;;;781205;180;26493;-90
2023/11/02 17:34:11;;;;;;;9.53;2.47;;;12.90;62.80;;;;;;780943;180;26476;-88
2023/11/02 17:42:37;;;;;;;13.33;3.37;;;12.70;61.80;;;;;;780855;183;26472;-87
2023/11/02 17:54:04;;;;;;;11.33;3.40;;;12.90;60.40;;;;;;780534;183;26527;-86
2023/11/02 18:41:02;;;;;;;14.87;5.90;;;13.20;57.90;;;;;;736390;176;26577;-89
2023/11/02 18:44:31;;;;;;;;;;;;;;;;;;;;;
2023/11/02 19:12:18;;;;;;;9.63;3.20;;;12.90;58.10;;;;;;772455;184;26463;-86